createdAt,value
2022-10-14T00:02:07.923Z,87.97
2022-10-14T00:04:35.018Z,87.94
2022-10-14T00:07:01.976Z,88.37
2022-10-14T00:09:28.956Z,88.44
2022-10-14T00:11:55.991Z,88.47
2022-10-14T00:14:23.109Z,88.52
2022-10-14T00:16:53.696Z,88.82
2022-10-14T00:19:20.736Z,88.39
2022-10-14T00:21:48.113Z,88.36
2022-10-14T00:24:16.190Z,88.89
2022-10-14T00:26:43.630Z,89.06
2022-10-14T00:29:15.407Z,89.86
2022-10-14T00:31:42.548Z,90.34
2022-10-14T00:34:12.882Z,90.37
2022-10-14T00:36:40.981Z,89.41
2022-10-14T00:39:12.734Z,89.58
2022-10-14T00:41:40.227Z,89.27
2022-10-14T00:44:07.296Z,88.94
2022-10-14T00:46:35.600Z,88.94
2022-10-14T00:49:09.275Z,88.77
2022-10-14T00:51:37.041Z,89.03
2022-10-14T00:54:04.458Z,89.14
2022-10-14T00:56:31.698Z,89.48
2022-10-14T00:59:00.220Z,90.23
2022-10-14T01:01:27.246Z,90.67
2022-10-14T01:03:54.607Z,90.81
2022-10-14T01:06:41.945Z,91.01
2022-10-14T01:09:24.236Z,90.75
2022-10-14T01:12:16.334Z,90.47
2022-10-14T01:14:49.213Z,90.69
2022-10-14T01:17:16.156Z,91.31
2022-10-14T01:19:58.299Z,91.08
2022-10-14T01:22:31.534Z,90.98
2022-10-14T01:24:58.505Z,90.76
2022-10-14T01:27:25.734Z,91.81
2022-10-14T01:30:01.164Z,91.63
2022-10-14T01:32:32.949Z,92.23
2022-10-14T01:35:02.903Z,91.08
2022-10-14T01:37:32.174Z,91.02
2022-10-14T01:40:01.799Z,91.57
2022-10-14T01:42:33.321Z,91.47
2022-10-14T01:45:09.293Z,91.53
2022-10-14T01:47:38.535Z,91.20
2022-10-14T01:50:09.673Z,91.57
2022-10-14T01:52:40.116Z,92.35
2022-10-14T01:55:09.560Z,92.32
2022-10-14T01:57:38.452Z,92.49
2022-10-14T02:00:06.249Z,92.20
2022-10-14T02:02:41.212Z,92.33
2022-10-14T02:05:14.391Z,92.26
2022-10-14T02:07:44.406Z,92.58
2022-10-14T02:10:50.160Z,92.75
2022-10-14T02:13:23.397Z,93.72
2022-10-14T02:16:02.505Z,93.33
2022-10-14T02:18:38.961Z,93.33
2022-10-14T02:21:27.414Z,93.18
2022-10-14T02:24:25.407Z,92.87
2022-10-14T02:26:55.594Z,93.57
2022-10-14T02:29:23.285Z,93.68
2022-10-14T02:31:54.644Z,92.78
2022-10-14T02:34:23.020Z,92.37
2022-10-14T02:36:50.557Z,92.64
2022-10-14T02:39:24.155Z,93.08
2022-10-14T02:41:51.277Z,92.72
2022-10-14T02:44:18.268Z,93.41
2022-10-14T02:46:46.672Z,93.53
2022-10-14T02:49:13.979Z,93.62
2022-10-14T02:51:43.293Z,92.97
2022-10-14T02:54:11.546Z,93.87
2022-10-14T02:56:38.610Z,93.83
2022-10-14T02:59:05.684Z,93.17
2022-10-14T03:01:37.361Z,93.42
2022-10-14T03:04:06.145Z,93.64
2022-10-14T03:06:33.620Z,93.51
2022-10-14T03:09:01.054Z,93.89
2022-10-14T03:11:29.121Z,94.05
2022-10-14T03:14:02.377Z,94.44
2022-10-14T03:16:29.839Z,95.05
2022-10-14T03:18:56.990Z,94.69
2022-10-14T03:21:38.754Z,94.01
2022-10-14T03:24:12.281Z,94.15
2022-10-14T03:26:40.280Z,94.35
2022-10-14T03:29:07.671Z,94.64
2022-10-14T03:31:50.416Z,94.83
2022-10-14T03:34:27.281Z,95.15
2022-10-14T03:37:04.037Z,95.78
2022-10-14T03:39:32.829Z,95.13
2022-10-14T03:42:05.128Z,95.04
2022-10-14T03:44:40.460Z,95.50
2022-10-14T03:47:31.000Z,95.64
2022-10-14T03:49:59.422Z,95.52
2022-10-14T03:52:32.308Z,95.64
2022-10-14T03:55:10.154Z,95.90
2022-10-14T03:57:37.428Z,95.82
2022-10-14T04:00:06.603Z,96.00
2022-10-14T04:02:42.381Z,96.05
2022-10-14T04:05:25.036Z,96.02
2022-10-14T04:07:52.610Z,95.75
2022-10-14T04:10:19.760Z,95.82
2022-10-14T04:12:53.160Z,96.10
2022-10-14T04:15:25.439Z,95.86
2022-10-14T04:18:12.977Z,96.15
2022-10-14T04:20:40.710Z,95.90
2022-10-14T04:23:09.013Z,96.25
2022-10-14T04:25:38.922Z,96.35
2022-10-14T04:28:07.874Z,95.94
2022-10-14T04:31:00.942Z,95.86
2022-10-14T04:33:35.128Z,95.71
2022-10-14T04:36:10.120Z,95.73
2022-10-14T04:38:40.351Z,95.54
2022-10-14T04:41:09.580Z,95.79
2022-10-14T04:43:41.101Z,96.06
2022-10-14T04:46:20.440Z,96.72
2022-10-14T04:48:47.997Z,96.67
2022-10-14T04:51:16.068Z,96.28
2022-10-14T04:53:54.220Z,96.33
2022-10-14T04:56:39.337Z,96.38
2022-10-14T04:59:06.424Z,96.62
2022-10-14T05:01:54.536Z,96.66
2022-10-14T05:04:22.080Z,96.69
2022-10-14T05:06:53.541Z,96.82
2022-10-14T05:09:20.741Z,96.78
2022-10-14T05:11:47.829Z,97.08
2022-10-14T05:14:19.436Z,97.66
2022-10-14T05:16:49.358Z,97.77
2022-10-14T05:19:22.809Z,97.98
2022-10-14T05:21:51.286Z,98.22
2022-10-14T05:24:33.454Z,98.94
2022-10-14T05:27:01.781Z,98.30
2022-10-14T05:29:30.530Z,98.01
2022-10-14T05:31:57.614Z,98.28
2022-10-14T05:34:37.014Z,98.05
2022-10-14T05:37:07.508Z,98.42
2022-10-14T05:39:42.225Z,98.96
2022-10-14T05:42:09.376Z,98.68
2022-10-14T05:44:36.960Z,98.37
2022-10-14T05:47:04.941Z,98.78
2022-10-14T05:49:32.337Z,98.77
2022-10-14T05:52:02.815Z,98.69
2022-10-14T05:54:31.415Z,98.72
2022-10-14T05:56:58.961Z,98.69
2022-10-14T05:59:26.542Z,98.80
2022-10-14T06:01:53.630Z,99.44
2022-10-14T06:04:21.263Z,99.16
2022-10-14T06:06:48.436Z,99.05
2022-10-14T06:09:16.402Z,98.87
2022-10-14T06:11:43.868Z,99.24
2022-10-14T06:14:11.141Z,98.90
2022-10-14T06:16:38.396Z,98.33
2022-10-14T06:19:07.256Z,98.71
2022-10-14T06:21:34.292Z,98.35
2022-10-14T06:24:01.391Z,98.56
2022-10-14T06:26:28.375Z,98.72
2022-10-14T06:28:55.477Z,98.11
2022-10-14T06:31:23.011Z,98.27
2022-10-14T06:33:50.023Z,98.70
2022-10-14T06:36:17.276Z,98.21
2022-10-14T06:38:44.285Z,98.25
2022-10-14T06:41:11.374Z,98.30
2022-10-14T06:43:38.473Z,98.15
2022-10-14T06:46:05.853Z,98.04
2022-10-14T06:48:32.978Z,97.10
2022-10-14T06:51:00.747Z,96.02
2022-10-14T06:53:28.289Z,95.73
2022-10-14T06:55:59.536Z,94.30
2022-10-14T06:58:26.947Z,92.94
2022-10-14T07:00:54.311Z,91.47
2022-10-14T07:03:21.564Z,91.74
2022-10-14T07:05:48.628Z,92.75
2022-10-14T07:08:15.985Z,91.94
2022-10-14T07:10:43.066Z,89.42
2022-10-14T07:13:10.151Z,86.15
2022-10-14T07:15:37.966Z,86.99
2022-10-14T07:18:06.354Z,88.81
2022-10-14T07:20:34.507Z,86.21
2022-10-14T07:23:01.676Z,84.43
2022-10-14T07:25:29.875Z,82.50
2022-10-14T07:27:56.884Z,85.41
2022-10-14T07:30:24.114Z,88.45
2022-10-14T07:32:51.200Z,84.17
2022-10-14T07:35:19.077Z,81.18
2022-10-14T07:37:46.890Z,79.94
2022-10-14T07:40:14.249Z,79.08
2022-10-14T07:42:41.289Z,78.54
2022-10-14T07:45:09.106Z,77.98
2022-10-14T07:47:36.112Z,76.34
2022-10-14T07:50:03.757Z,76.68
2022-10-14T07:52:30.736Z,75.49
2022-10-14T07:54:57.726Z,75.00
2022-10-14T07:57:25.381Z,74.37
2022-10-14T07:59:52.611Z,73.70
2022-10-14T08:02:19.805Z,74.28
2022-10-14T08:04:47.400Z,73.20
2022-10-14T08:07:14.521Z,72.87
2022-10-14T08:09:41.855Z,72.25
2022-10-14T08:12:08.981Z,70.25
2022-10-14T08:14:37.608Z,69.47
2022-10-14T08:17:04.913Z,69.02
2022-10-14T08:19:32.180Z,67.74
2022-10-14T08:21:59.221Z,68.97
2022-10-14T08:24:26.269Z,68.16
2022-10-14T08:26:54.714Z,68.55
2022-10-14T08:29:24.773Z,67.64
2022-10-14T08:31:52.558Z,67.19
2022-10-14T08:34:24.341Z,65.30
2022-10-14T08:36:51.732Z,63.41
2022-10-14T08:39:19.287Z,63.65
2022-10-14T08:42:04.880Z,62.57
2022-10-14T08:44:50.801Z,63.46
2022-10-14T08:47:21.189Z,63.68
2022-10-14T08:49:48.260Z,63.66
2022-10-14T08:52:17.764Z,63.94
2022-10-14T08:54:46.748Z,63.51
2022-10-14T08:57:17.995Z,62.68
2022-10-14T08:59:45.224Z,63.70
2022-10-14T09:02:15.365Z,63.17
2022-10-14T09:04:42.370Z,62.16
2022-10-14T09:07:12.190Z,61.25
2022-10-14T09:09:43.817Z,62.01
2022-10-14T09:12:16.684Z,61.70
2022-10-14T09:14:47.954Z,60.00
2022-10-14T09:17:24.478Z,60.19
2022-10-14T09:19:54.193Z,61.49
2022-10-14T09:22:21.475Z,61.51
2022-10-14T09:24:48.639Z,62.37
2022-10-14T09:27:17.079Z,62.07
2022-10-14T09:29:59.058Z,61.06
2022-10-14T09:32:26.102Z,60.40
2022-10-14T09:34:53.384Z,59.21
2022-10-14T09:37:26.670Z,60.33
2022-10-14T09:39:55.858Z,60.13
2022-10-14T09:42:26.114Z,60.51
2022-10-14T09:47:41.942Z,60.30
2022-10-14T09:50:10.204Z,60.45
2022-10-14T09:52:38.844Z,61.17
2022-10-14T09:55:08.865Z,59.54
2022-10-14T09:57:35.997Z,59.01
2022-10-14T10:00:04.935Z,59.99
2022-10-14T10:02:40.637Z,59.68
2022-10-14T10:05:12.177Z,59.71
2022-10-14T10:07:39.229Z,59.15
2022-10-14T10:10:20.612Z,57.36
2022-10-14T10:12:47.693Z,59.37
2022-10-14T10:15:19.180Z,58.33
2022-10-14T10:17:47.693Z,58.69
2022-10-14T10:20:14.731Z,58.05
2022-10-14T10:22:41.857Z,57.63
2022-10-14T10:25:08.838Z,57.86
2022-10-14T10:27:37.324Z,57.97
2022-10-14T10:30:24.558Z,56.83
2022-10-14T10:32:51.567Z,57.44
2022-10-14T10:35:24.809Z,57.25
2022-10-14T10:38:11.134Z,59.01
2022-10-14T10:40:40.892Z,58.54
2022-10-14T10:43:28.914Z,59.96
2022-10-14T10:46:02.264Z,61.44
2022-10-14T10:48:41.735Z,60.06
2022-10-14T10:51:15.144Z,59.43
2022-10-14T10:53:45.304Z,58.68
2022-10-14T10:56:16.137Z,59.33
2022-10-14T10:58:49.138Z,59.48
2022-10-14T11:01:17.300Z,58.41
2022-10-14T11:03:44.370Z,58.04
2022-10-14T11:06:38.830Z,58.19
2022-10-14T11:09:26.651Z,57.74
2022-10-14T11:12:03.455Z,57.66
2022-10-14T11:14:42.339Z,56.84
2022-10-14T11:17:18.288Z,58.02
2022-10-14T11:19:49.124Z,58.90
2022-10-14T11:22:23.590Z,57.14
2022-10-14T11:24:59.024Z,58.04
2022-10-14T11:27:40.732Z,57.89
2022-10-14T11:30:23.415Z,57.71
2022-10-14T11:33:08.432Z,58.33
2022-10-14T11:35:50.915Z,57.31
2022-10-14T11:38:40.324Z,57.14
2022-10-14T11:41:35.681Z,57.70
2022-10-14T11:44:12.726Z,58.06
2022-10-14T11:46:50.811Z,57.76
2022-10-14T11:49:42.601Z,56.81
2022-10-14T11:52:16.137Z,57.23
2022-10-14T11:54:55.262Z,57.07
2022-10-14T11:57:28.161Z,58.49
2022-10-14T12:00:01.318Z,56.85
2022-10-14T12:02:37.189Z,56.91
2022-10-14T12:05:23.715Z,57.74
2022-10-14T12:08:11.113Z,57.48
2022-10-14T12:13:58.510Z,58.09
2022-10-14T12:16:27.930Z,58.57
2022-10-14T12:19:02.278Z,59.52
2022-10-14T12:21:53.069Z,59.15
2022-10-14T12:24:27.897Z,60.75
2022-10-14T12:27:07.966Z,59.67
2022-10-14T12:29:58.510Z,60.88
2022-10-14T12:32:33.113Z,61.61
2022-10-14T12:35:04.511Z,60.22
2022-10-14T12:37:43.027Z,59.13
2022-10-14T12:40:23.136Z,60.75
2022-10-14T12:43:07.335Z,60.98
2022-10-14T12:48:34.494Z,61.58
2022-10-14T12:51:18.930Z,61.00
2022-10-14T12:54:09.370Z,61.03
2022-10-14T12:59:29.700Z,59.22
2022-10-14T13:02:02.120Z,59.58
2022-10-14T13:04:31.767Z,61.09
2022-10-14T13:07:46.650Z,60.81
2022-10-14T13:10:34.091Z,61.12
2022-10-14T13:13:24.941Z,59.36
2022-10-14T13:15:54.714Z,60.50
2022-10-14T13:18:36.848Z,60.81
2022-10-14T13:21:05.540Z,62.38
2022-10-14T13:23:55.435Z,62.20
2022-10-14T13:26:30.177Z,61.03
2022-10-14T13:32:00.404Z,59.79
2022-10-14T13:34:36.500Z,59.90
2022-10-14T13:37:25.526Z,60.76
2022-10-14T13:40:03.026Z,59.19
2022-10-14T13:42:38.061Z,58.83
2022-10-14T13:45:14.414Z,59.36
2022-10-14T13:50:37.288Z,59.40
2022-10-14T13:53:27.144Z,59.77
2022-10-14T13:58:50.697Z,59.27
2022-10-14T14:01:46.549Z,58.90
2022-10-14T14:04:27.044Z,58.10
2022-10-14T14:07:27.463Z,59.51
2022-10-14T14:12:43.995Z,59.28
2022-10-14T14:15:26.723Z,56.83
2022-10-14T14:17:54.125Z,57.37
2022-10-14T14:20:24.756Z,58.10
2022-10-14T14:25:55.592Z,57.92
2022-10-14T14:31:23.009Z,58.74
2022-10-14T14:33:58.577Z,57.95
2022-10-14T14:39:32.671Z,58.81
2022-10-14T14:42:10.211Z,60.38
2022-10-14T14:44:44.195Z,58.51
2022-10-14T14:50:29.088Z,59.20
2022-10-14T14:55:57.611Z,59.63
2022-10-14T15:01:23.737Z,61.86
2022-10-14T15:04:12.751Z,61.96
2022-10-14T15:09:53.991Z,63.84
2022-10-14T15:12:24.729Z,62.10
2022-10-14T15:15:02.349Z,65.30
2022-10-14T15:17:41.174Z,63.79
2022-10-14T15:20:11.460Z,63.24
2022-10-14T15:22:50.862Z,63.20
2022-10-14T15:28:44.034Z,66.63
2022-10-14T15:34:05.910Z,66.32
2022-10-14T15:36:37.580Z,66.87
2022-10-14T15:39:16.830Z,68.15
2022-10-14T15:42:01.355Z,68.10
2022-10-14T15:44:32.577Z,68.20
2022-10-14T15:47:33.361Z,68.06
2022-10-14T15:53:28.189Z,69.33
2022-10-14T15:55:59.761Z,70.16
2022-10-14T15:58:29.239Z,69.63
2022-10-14T16:03:57.546Z,70.67
2022-10-14T16:06:24.759Z,70.76
2022-10-14T16:11:41.513Z,71.61
2022-10-14T16:14:22.868Z,72.04
2022-10-14T16:16:59.149Z,72.18
2022-10-14T16:19:36.845Z,71.70
2022-10-14T16:22:17.589Z,73.53
2022-10-14T16:24:51.450Z,73.14
2022-10-14T16:27:27.539Z,71.99
2022-10-14T16:30:08.118Z,72.20
2022-10-14T16:32:42.657Z,72.28
2022-10-14T16:35:15.311Z,72.86
2022-10-14T16:37:43.498Z,73.05
2022-10-14T16:40:14.294Z,72.55
2022-10-14T16:42:45.521Z,73.18
2022-10-14T16:45:21.498Z,72.67
2022-10-14T16:47:59.970Z,72.29
2022-10-14T16:50:30.827Z,72.89
2022-10-14T16:56:45.826Z,72.97
2022-10-14T16:59:51.990Z,72.32
2022-10-14T17:02:14.684Z,72.69
2022-10-14T17:04:55.292Z,73.68
2022-10-14T17:07:31.763Z,74.17
2022-10-14T17:10:11.994Z,74.36
2022-10-14T17:12:39.815Z,75.05
2022-10-14T17:15:39.384Z,74.77
2022-10-14T17:18:12.525Z,74.83
2022-10-14T17:20:41.163Z,75.15
2022-10-14T17:23:10.386Z,75.16
2022-10-14T17:25:46.190Z,75.31
2022-10-14T17:28:13.464Z,75.86
2022-10-14T17:30:40.681Z,75.62
2022-10-14T17:33:07.961Z,75.73
2022-10-14T17:35:35.154Z,75.55
2022-10-14T17:38:02.355Z,75.20
2022-10-14T17:40:33.598Z,74.22
2022-10-14T17:43:01.310Z,73.14
2022-10-14T17:45:30.530Z,72.68
2022-10-14T17:47:58.052Z,72.97
2022-10-14T17:50:27.050Z,72.91
2022-10-14T17:52:58.712Z,72.70
2022-10-14T17:55:25.982Z,71.88
2022-10-14T17:57:53.457Z,72.29
2022-10-14T18:00:21.473Z,72.28
2022-10-14T18:02:48.675Z,71.40
2022-10-14T18:05:16.423Z,70.89
2022-10-14T18:07:43.611Z,72.09
2022-10-14T18:10:11.221Z,74.47
2022-10-14T18:12:39.250Z,76.08
2022-10-14T18:15:07.594Z,75.90
2022-10-14T18:17:36.424Z,76.12
2022-10-14T18:20:05.388Z,75.89
2022-10-14T18:22:33.260Z,76.58
2022-10-14T18:25:00.601Z,76.62
2022-10-14T18:27:27.818Z,76.54
2022-10-14T18:29:54.968Z,76.93
2022-10-14T18:32:22.278Z,77.46
2022-10-14T18:34:49.545Z,76.98
2022-10-14T18:37:16.682Z,75.95
2022-10-14T18:39:44.651Z,76.67
2022-10-14T18:42:11.725Z,77.18
2022-10-14T18:44:38.986Z,77.65
2022-10-14T18:47:06.037Z,77.28
2022-10-14T18:49:38.169Z,77.90
2022-10-14T18:52:08.630Z,78.60
2022-10-14T18:54:35.787Z,78.53
2022-10-14T18:57:03.104Z,78.97
2022-10-14T18:59:30.146Z,79.19
2022-10-14T19:01:57.255Z,79.99
2022-10-14T19:04:25.567Z,80.30
2022-10-14T19:06:53.225Z,80.48
2022-10-14T19:09:22.195Z,80.32
2022-10-14T19:11:49.720Z,80.20
2022-10-14T19:14:16.993Z,80.19
2022-10-14T19:16:47.106Z,80.49
2022-10-14T19:19:16.821Z,80.42
2022-10-14T19:21:45.537Z,81.45
2022-10-14T19:24:13.462Z,81.97
2022-10-14T19:26:41.895Z,81.92
2022-10-14T19:29:11.800Z,82.89
2022-10-14T19:31:39.426Z,83.10
2022-10-14T19:34:09.293Z,82.74
2022-10-14T19:36:37.337Z,83.07
2022-10-14T19:39:05.240Z,83.99
2022-10-14T19:41:34.068Z,84.20
2022-10-14T19:44:01.196Z,84.29
2022-10-14T19:46:29.130Z,84.37
2022-10-14T19:48:57.264Z,84.48
2022-10-14T19:51:24.954Z,84.61
2022-10-14T19:53:52.048Z,84.42
2022-10-14T19:56:29.053Z,84.35
2022-10-14T19:58:57.449Z,84.26
2022-10-14T20:01:25.422Z,84.43
2022-10-14T20:03:53.206Z,83.93
2022-10-14T20:06:21.193Z,84.43
2022-10-14T20:08:48.977Z,84.77
2022-10-14T20:11:17.995Z,85.35
2022-10-14T20:13:45.592Z,85.15
2022-10-14T20:16:12.773Z,85.39
2022-10-14T20:18:39.893Z,85.65
2022-10-14T20:21:07.579Z,85.66
2022-10-14T20:23:35.320Z,85.47
2022-10-14T20:26:03.228Z,85.17
2022-10-14T20:28:30.337Z,85.10
2022-10-14T20:30:57.503Z,85.15
2022-10-14T20:33:25.843Z,85.23
2022-10-14T20:36:04.101Z,85.28
2022-10-14T20:38:31.123Z,85.40
2022-10-14T20:41:27.697Z,85.41
2022-10-14T20:43:55.152Z,86.34
2022-10-14T20:46:22.781Z,85.76
2022-10-14T20:48:53.532Z,86.09
2022-10-14T20:51:20.909Z,86.50
2022-10-14T20:53:48.227Z,86.51
2022-10-14T20:56:15.486Z,86.67
2022-10-14T20:58:42.861Z,87.19
2022-10-14T21:01:14.524Z,86.92
2022-10-14T21:03:42.870Z,86.97
2022-10-14T21:06:12.040Z,86.73
2022-10-14T21:08:39.160Z,85.63
2022-10-14T21:11:13.685Z,85.76
2022-10-14T21:14:08.304Z,85.72
2022-10-14T21:16:36.869Z,86.01
2022-10-14T21:19:05.498Z,86.35
2022-10-14T21:21:34.227Z,85.15
2022-10-14T21:24:01.548Z,85.66
2022-10-14T21:26:29.276Z,85.65
2022-10-14T21:28:56.321Z,86.20
2022-10-14T21:31:23.717Z,86.05
2022-10-14T21:33:54.788Z,85.79
2022-10-14T21:36:21.936Z,86.28
2022-10-14T21:38:50.623Z,86.29
2022-10-14T21:41:17.952Z,86.35
2022-10-14T21:43:45.051Z,86.87
2022-10-14T21:46:13.229Z,87.99
2022-10-14T21:48:40.807Z,87.57
2022-10-14T21:51:12.577Z,87.62
2022-10-14T21:53:40.293Z,87.11
2022-10-14T21:56:07.899Z,86.20
2022-10-14T21:58:35.092Z,85.63
2022-10-14T22:01:04.077Z,86.47
2022-10-14T22:03:31.275Z,86.25
2022-10-14T22:05:59.347Z,86.60
2022-10-14T22:08:31.085Z,86.36
2022-10-14T22:10:58.334Z,84.69
2022-10-14T22:13:25.848Z,85.17
2022-10-14T22:15:53.021Z,85.89
2022-10-14T22:18:20.784Z,86.73
2022-10-14T22:20:48.727Z,86.72
2022-10-14T22:23:15.813Z,86.97
2022-10-14T22:25:42.899Z,87.46
2022-10-14T22:28:10.254Z,87.32
2022-10-14T22:30:37.294Z,86.26
2022-10-14T22:33:04.317Z,86.37
2022-10-14T22:35:31.433Z,85.61
2022-10-14T22:37:58.440Z,85.22
2022-10-14T22:40:25.552Z,85.46
2022-10-14T22:42:52.570Z,84.21
2022-10-14T22:45:20.030Z,83.96
2022-10-14T22:47:47.191Z,83.42
2022-10-14T22:50:14.241Z,83.36
2022-10-14T22:52:41.346Z,84.18
2022-10-14T22:55:08.923Z,83.26
2022-10-14T22:57:36.063Z,84.41
2022-10-14T23:00:04.828Z,84.24
2022-10-14T23:02:32.024Z,83.78
2022-10-14T23:04:59.371Z,84.37
2022-10-14T23:07:28.858Z,85.35
2022-10-14T23:09:55.973Z,85.17
2022-10-14T23:12:23.237Z,84.28
2022-10-14T23:14:51.297Z,84.55
2022-10-14T23:17:18.362Z,84.83
2022-10-14T23:19:46.632Z,85.12
2022-10-14T23:22:18.907Z,85.70
2022-10-14T23:24:46.008Z,84.69
2022-10-14T23:27:14.779Z,84.37
2022-10-14T23:29:42.671Z,83.56
2022-10-14T23:32:13.304Z,83.57
2022-10-14T23:34:40.354Z,84.30
2022-10-14T23:37:07.640Z,85.00
2022-10-14T23:39:35.354Z,85.24
2022-10-14T23:42:03.280Z,85.61
2022-10-14T23:44:33.173Z,85.83
2022-10-14T23:47:02.084Z,86.57
2022-10-14T23:49:34.011Z,86.71
2022-10-14T23:52:01.877Z,86.40
2022-10-14T23:54:29.477Z,86.04
2022-10-14T23:56:56.992Z,85.60
2022-10-14T23:59:24.580Z,85.70
